createdAt,value
2022-11-26T00:00:33.387Z,10.30
2022-11-26T00:01:35.466Z,7.22
2022-11-26T00:02:37.345Z,8.90
2022-11-26T00:03:39.297Z,9.00
2022-11-26T00:04:41.175Z,7.11
2022-11-26T00:05:46.345Z,6.78
2022-11-26T00:06:48.500Z,9.90
2022-11-26T00:07:55.904Z,12.30
2022-11-26T00:08:59.510Z,7.10
2022-11-26T00:10:01.634Z,9.20
2022-11-26T00:11:06.697Z,12.60
2022-11-26T00:12:15.290Z,22.90
2022-11-26T00:13:20.716Z,11.10
2022-11-26T00:14:22.411Z,7.80
2022-11-26T00:15:26.630Z,8.67
2022-11-26T00:16:29.623Z,8.30
2022-11-26T00:17:31.486Z,7.64
2022-11-26T00:18:33.276Z,9.11
2022-11-26T00:19:35.086Z,11.56
2022-11-26T00:20:37.005Z,8.00
2022-11-26T00:21:41.644Z,4.22
2022-11-26T00:22:50.356Z,10.40
2022-11-26T00:23:54.150Z,11.20
2022-11-26T00:24:56.933Z,11.90
2022-11-26T00:26:03.721Z,10.10
2022-11-26T00:27:07.480Z,13.50
2022-11-26T00:28:32.599Z,13.50
2022-11-26T00:29:34.494Z,11.90
2022-11-26T00:30:37.347Z,10.11
2022-11-26T00:31:39.209Z,10.45
2022-11-26T00:32:40.891Z,13.56
2022-11-26T00:33:42.488Z,9.33
2022-11-26T00:34:45.007Z,12.33
2022-11-26T00:35:50.574Z,10.90
2022-11-26T00:36:52.718Z,10.60
2022-11-26T00:37:57.400Z,12.10
2022-11-26T00:39:09.013Z,7.90
2022-11-26T00:40:26.753Z,11.30
2022-11-26T00:41:32.665Z,8.40
2022-11-26T00:42:36.102Z,8.90
2022-11-26T00:43:37.813Z,7.50
2022-11-26T00:44:39.892Z,6.33
2022-11-26T00:45:42.892Z,5.50
2022-11-26T00:46:45.377Z,7.30
2022-11-26T00:47:47.247Z,7.10
2022-11-26T00:48:49.106Z,8.89
2022-11-26T00:49:50.932Z,7.11
2022-11-26T00:50:52.943Z,16.00
2022-11-26T00:51:54.584Z,22.22
2022-11-26T00:52:56.521Z,17.33
2022-11-26T00:54:01.384Z,11.50
2022-11-26T00:55:07.149Z,8.10
2022-11-26T00:56:18.510Z,7.80
2022-11-26T00:57:20.537Z,8.00
2022-11-26T00:58:25.841Z,5.33
2022-11-26T00:59:27.663Z,20.30
2022-11-26T01:00:32.897Z,21.56
2022-11-26T01:01:34.906Z,18.30
2022-11-26T01:02:36.801Z,15.00
2022-11-26T01:03:39.937Z,9.22
2022-11-26T01:04:42.382Z,12.40
2022-11-26T01:05:46.453Z,12.10
2022-11-26T01:06:48.792Z,17.20
2022-11-26T01:07:52.690Z,8.90
2022-11-26T01:08:54.839Z,12.80
2022-11-26T01:09:56.554Z,20.89
2022-11-26T01:11:00.302Z,17.56
2022-11-26T01:12:02.267Z,11.20
2022-11-26T01:13:06.150Z,21.00
2022-11-26T01:14:11.759Z,10.60
2022-11-26T01:15:14.939Z,17.00
2022-11-26T01:16:24.393Z,19.70
2022-11-26T01:17:26.393Z,20.80
2022-11-26T01:18:31.742Z,8.90
2022-11-26T01:19:33.511Z,5.00
2022-11-26T01:20:35.367Z,10.56
2022-11-26T01:21:37.379Z,14.11
2022-11-26T01:22:39.091Z,18.20
2022-11-26T01:23:40.883Z,10.22
2022-11-26T01:24:42.512Z,18.78
2022-11-26T01:25:45.846Z,20.33
2022-11-26T01:26:47.887Z,19.40
2022-11-26T01:27:49.902Z,29.00
2022-11-26T01:28:51.696Z,16.30
2022-11-26T01:29:53.311Z,14.22
2022-11-26T01:30:55.241Z,14.00
2022-11-26T01:31:57.263Z,14.67
2022-11-26T01:32:59.206Z,12.10
2022-11-26T01:34:02.048Z,11.44
2022-11-26T01:35:04.700Z,15.60
2022-11-26T01:36:28.471Z,15.40
2022-11-26T01:37:30.283Z,12.80
2022-11-26T01:38:32.019Z,12.44
2022-11-26T01:39:33.626Z,8.33
2022-11-26T01:40:54.330Z,11.33
2022-11-26T01:42:29.015Z,10.90
2022-11-26T01:43:39.978Z,25.80
2022-11-26T01:44:41.979Z,18.00
2022-11-26T01:45:43.965Z,41.33
2022-11-26T01:46:47.228Z,20.10
2022-11-26T01:47:49.592Z,25.60
2022-11-26T01:48:52.071Z,11.20
2022-11-26T01:50:29.936Z,23.90
2022-11-26T01:51:31.921Z,18.20
2022-11-26T01:52:34.939Z,26.80
2022-11-26T01:53:49.130Z,16.18
2022-11-26T01:54:52.683Z,18.70
2022-11-26T01:56:02.229Z,14.20
2022-11-26T01:57:14.388Z,13.20
2022-11-26T01:58:19.839Z,11.30
2022-11-26T01:59:25.411Z,10.50
2022-11-26T02:00:27.424Z,10.40
2022-11-26T02:01:29.577Z,13.30
2022-11-26T02:02:32.274Z,9.10
2022-11-26T02:03:46.549Z,11.80
2022-11-26T02:04:57.896Z,14.50
2022-11-26T02:07:14.284Z,14.90
2022-11-26T02:08:17.379Z,15.09
2022-11-26T02:09:19.704Z,15.80
2022-11-26T02:10:21.568Z,14.60
2022-11-26T02:11:24.669Z,14.44
2022-11-26T02:12:27.301Z,10.40
2022-11-26T02:13:29.163Z,8.50
2022-11-26T02:14:37.647Z,10.22
2022-11-26T02:16:05.813Z,11.30
2022-11-26T02:17:30.119Z,5.90
2022-11-26T02:18:35.744Z,5.80
2022-11-26T02:19:59.366Z,7.70
2022-11-26T02:21:17.274Z,4.60
2022-11-26T02:22:49.146Z,6.60
2022-11-26T02:23:57.263Z,3.00
2022-11-26T02:25:20.826Z,6.70
2022-11-26T02:26:44.080Z,3.90
2022-11-26T02:28:07.837Z,7.30
2022-11-26T02:29:22.902Z,7.50
2022-11-26T02:30:26.428Z,6.10
2022-11-26T02:31:47.368Z,3.70
2022-11-26T02:32:59.259Z,6.10
2022-11-26T02:34:19.555Z,5.70
2022-11-26T02:35:28.218Z,5.60
2022-11-26T02:36:36.777Z,5.30
2022-11-26T02:37:43.306Z,5.00
2022-11-26T02:38:45.365Z,5.80
2022-11-26T02:39:47.982Z,6.30
2022-11-26T02:40:52.020Z,5.40
2022-11-26T02:41:59.310Z,7.27
2022-11-26T02:43:02.341Z,5.30
2022-11-26T02:44:04.353Z,6.45
2022-11-26T02:45:10.189Z,10.40
2022-11-26T02:46:18.647Z,3.80
2022-11-26T02:47:23.934Z,6.70
2022-11-26T02:48:33.288Z,6.90
2022-11-26T02:49:38.765Z,5.00
2022-11-26T02:50:56.053Z,10.90
2022-11-26T02:52:00.692Z,9.00
2022-11-26T02:53:03.757Z,9.80
2022-11-26T02:54:08.721Z,6.70
2022-11-26T02:55:14.763Z,9.30
2022-11-26T02:56:20.466Z,7.10
2022-11-26T02:57:26.095Z,7.20
2022-11-26T02:58:28.692Z,9.10
2022-11-26T02:59:31.166Z,5.91
2022-11-26T03:00:35.439Z,3.70
2022-11-26T03:01:43.705Z,6.00
2022-11-26T03:02:55.599Z,4.90
2022-11-26T03:04:01.102Z,9.10
2022-11-26T03:05:05.922Z,8.90
2022-11-26T03:06:10.955Z,6.20
2022-11-26T03:07:14.140Z,9.10
2022-11-26T03:08:17.080Z,7.10
2022-11-26T03:09:21.463Z,6.10
2022-11-26T03:10:28.825Z,7.20
2022-11-26T03:11:30.781Z,10.10
2022-11-26T03:12:34.049Z,6.10
2022-11-26T03:13:36.244Z,5.30
2022-11-26T03:14:38.884Z,7.80
2022-11-26T03:15:40.973Z,9.55
2022-11-26T03:16:42.783Z,10.44
2022-11-26T03:17:44.708Z,9.00
2022-11-26T03:18:47.848Z,8.56
2022-11-26T03:19:50.628Z,10.90
2022-11-26T03:20:52.739Z,9.60
2022-11-26T03:21:54.662Z,8.10
2022-11-26T03:22:56.261Z,8.44
2022-11-26T03:23:57.976Z,10.44
2022-11-26T03:25:00.960Z,14.11
2022-11-26T03:26:03.276Z,15.80
2022-11-26T03:27:06.900Z,10.80
2022-11-26T03:28:08.737Z,11.40
2022-11-26T03:29:10.361Z,10.11
2022-11-26T03:30:13.071Z,10.56
2022-11-26T03:31:16.190Z,12.10
2022-11-26T03:32:18.845Z,11.80
2022-11-26T03:33:20.619Z,9.80
2022-11-26T03:34:22.424Z,7.89
2022-11-26T03:35:24.892Z,9.11
2022-11-26T03:36:26.842Z,12.50
2022-11-26T03:37:29.597Z,10.00
2022-11-26T03:38:31.708Z,8.30
2022-11-26T03:39:33.606Z,14.00
2022-11-26T03:40:35.680Z,9.30
2022-11-26T03:41:37.814Z,8.11
2022-11-26T03:42:39.780Z,7.10
2022-11-26T03:43:41.402Z,8.11
2022-11-26T03:44:44.184Z,9.00
2022-11-26T03:45:46.161Z,11.36
2022-11-26T03:46:48.090Z,13.80
2022-11-26T03:47:49.856Z,14.44
2022-11-26T03:48:51.779Z,16.67
2022-11-26T03:49:53.621Z,16.89
2022-11-26T03:50:55.314Z,22.78
2022-11-26T03:51:57.083Z,14.78
2022-11-26T03:52:58.714Z,13.00
2022-11-26T03:54:01.339Z,11.00
2022-11-26T03:55:03.284Z,11.70
2022-11-26T03:56:06.777Z,16.40
2022-11-26T03:57:08.516Z,20.50
2022-11-26T03:58:10.371Z,15.78
2022-11-26T03:59:12.228Z,23.44
2022-11-26T04:00:14.906Z,11.11
2022-11-26T04:01:16.985Z,11.80
2022-11-26T04:02:19.151Z,10.40
2022-11-26T04:03:20.969Z,9.40
2022-11-26T04:04:23.290Z,7.78
2022-11-26T04:05:25.093Z,9.20
2022-11-26T04:06:27.770Z,6.90
2022-11-26T04:07:29.645Z,8.90
2022-11-26T04:08:31.670Z,9.00
2022-11-26T04:09:33.749Z,8.40
2022-11-26T04:10:35.608Z,9.30
2022-11-26T04:11:37.444Z,8.89
2022-11-26T04:12:39.259Z,10.11
2022-11-26T04:13:41.307Z,8.89
2022-11-26T04:14:43.876Z,10.40
2022-11-26T04:15:47.454Z,8.90
2022-11-26T04:16:49.679Z,9.10
2022-11-26T04:17:51.631Z,9.60
2022-11-26T04:18:53.333Z,9.44
2022-11-26T04:19:55.247Z,14.11
2022-11-26T04:20:56.975Z,12.56
2022-11-26T04:21:58.833Z,17.67
2022-11-26T04:23:00.534Z,43.56
2022-11-26T04:24:03.382Z,47.89
2022-11-26T04:25:05.731Z,41.36
2022-11-26T04:26:08.292Z,49.50
2022-11-26T04:27:10.271Z,38.60
2022-11-26T04:28:11.912Z,39.89
2022-11-26T04:29:13.514Z,25.11
2022-11-26T04:30:18.490Z,28.78
2022-11-26T04:31:20.365Z,18.00
2022-11-26T04:32:22.306Z,13.70
2022-11-26T04:33:24.471Z,7.90
2022-11-26T04:34:26.112Z,12.89
2022-11-26T04:35:27.982Z,13.22
2022-11-26T04:36:29.795Z,15.78
2022-11-26T04:37:31.602Z,24.11
2022-11-26T04:38:33.347Z,25.22
2022-11-26T04:39:35.579Z,18.56
2022-11-26T04:40:38.735Z,25.00
2022-11-26T04:41:40.407Z,24.90
2022-11-26T04:42:42.242Z,28.44
2022-11-26T04:43:44.051Z,17.44
2022-11-26T04:44:45.786Z,19.33
2022-11-26T04:45:47.581Z,35.44
2022-11-26T04:46:49.616Z,21.80
2022-11-26T04:47:51.586Z,18.30
2022-11-26T04:48:53.325Z,13.89
2022-11-26T04:49:55.377Z,18.78
2022-11-26T04:50:57.482Z,14.90
2022-11-26T04:51:59.282Z,21.00
2022-11-26T04:53:01.019Z,17.11
2022-11-26T04:54:06.438Z,19.10
2022-11-26T04:55:08.021Z,40.50
2022-11-26T04:56:10.078Z,47.50
2022-11-26T04:57:11.912Z,40.33
2022-11-26T04:58:13.656Z,16.78
2022-11-26T04:59:15.961Z,27.56
2022-11-26T05:00:19.276Z,21.20
2022-11-26T05:01:21.169Z,5.70
2022-11-26T05:02:23.083Z,18.67
2022-11-26T05:03:25.068Z,17.44
2022-11-26T05:04:28.205Z,14.89
2022-11-26T05:05:30.035Z,16.10
2022-11-26T05:06:32.009Z,19.67
2022-11-26T05:07:34.112Z,18.00
2022-11-26T05:08:35.887Z,18.00
2022-11-26T05:09:37.726Z,21.11
2022-11-26T05:10:39.774Z,18.78
2022-11-26T11:05:55.842Z,27.40
2022-11-26T11:06:58.430Z,23.70
2022-11-26T11:08:00.292Z,19.60
2022-11-26T11:09:24.686Z,24.80
2022-11-26T11:10:26.756Z,14.60
2022-11-26T11:11:30.481Z,23.00
2022-11-26T11:12:33.100Z,21.00
2022-11-26T11:13:43.214Z,18.90
2022-11-26T11:14:46.199Z,21.10
2022-11-26T11:15:52.360Z,21.70
2022-11-26T11:16:54.485Z,17.60
2022-11-26T11:18:15.028Z,13.60
2022-11-26T11:19:23.476Z,19.00
2022-11-26T11:20:44.717Z,12.30
2022-11-26T11:21:48.547Z,18.20
2022-11-26T11:23:03.173Z,20.20
2022-11-26T11:24:24.092Z,17.30
2022-11-26T11:25:34.702Z,17.00
2022-11-26T11:26:44.861Z,20.90
2022-11-26T11:27:47.929Z,16.00
2022-11-26T11:28:54.820Z,18.10
2022-11-26T11:30:01.805Z,16.60
2022-11-26T11:31:10.271Z,23.30
2022-11-26T11:32:33.872Z,18.70
2022-11-26T11:33:36.134Z,13.00
2022-11-26T11:34:39.981Z,8.10
2022-11-26T11:35:42.044Z,18.60
2022-11-26T11:36:47.515Z,20.11
2022-11-26T11:37:53.627Z,19.60
2022-11-26T11:38:58.925Z,12.10
2022-11-26T11:40:09.209Z,11.50
2022-11-26T11:41:24.932Z,15.80
2022-11-26T11:42:27.693Z,17.40
2022-11-26T11:43:33.188Z,18.30
2022-11-26T11:44:44.555Z,16.10
2022-11-26T11:45:53.550Z,15.70
2022-11-26T11:47:11.480Z,18.00
2022-11-26T11:48:21.075Z,20.30
2022-11-26T11:49:30.632Z,2.50
2022-11-26T11:50:39.180Z,13.30
2022-11-26T11:52:03.798Z,15.60
2022-11-26T11:53:30.583Z,13.80
2022-11-26T11:54:53.008Z,11.90
2022-11-26T11:56:02.411Z,13.70
2022-11-26T11:57:18.002Z,13.30
2022-11-26T11:58:40.211Z,18.20
2022-11-26T11:59:45.789Z,16.20
2022-11-26T12:01:12.804Z,19.80
2022-11-26T12:02:25.345Z,13.10
2022-11-26T12:03:52.671Z,22.30
2022-11-26T12:05:08.227Z,23.10
2022-11-26T12:06:30.502Z,19.40
2022-11-26T12:07:42.222Z,12.50
2022-11-26T12:08:57.147Z,7.40
2022-11-26T12:10:17.784Z,13.30
2022-11-26T12:11:26.302Z,14.10
2022-11-26T12:12:34.901Z,12.00
2022-11-26T12:13:46.830Z,11.20
2022-11-26T12:14:55.178Z,10.40
2022-11-26T12:16:07.264Z,12.50
2022-11-26T12:19:02.745Z,15.10
2022-11-26T12:20:08.854Z,14.60
2022-11-26T12:21:16.085Z,12.30
2022-11-26T12:22:21.584Z,9.70
2022-11-26T12:23:31.248Z,13.20
2022-11-26T12:24:45.685Z,12.20
2022-11-26T12:25:51.890Z,13.10
2022-11-26T12:28:19.329Z,7.70
2022-11-26T12:29:40.161Z,12.50
2022-11-26T12:30:52.046Z,9.10
2022-11-26T12:32:12.950Z,9.00
2022-11-26T12:33:21.568Z,13.00
2022-11-26T12:34:33.843Z,22.10
2022-11-26T12:35:39.356Z,17.80
2022-11-26T12:36:57.014Z,17.80
2022-11-26T12:38:02.528Z,25.00
2022-11-26T12:39:08.089Z,21.90
2022-11-26T12:40:29.842Z,20.00
2022-11-26T12:41:35.874Z,21.60
2022-11-26T12:42:44.869Z,18.60
2022-11-26T12:44:08.575Z,13.90
2022-11-26T12:45:19.958Z,22.40
2022-11-26T12:46:25.663Z,11.60
2022-11-26T12:47:40.496Z,15.90
2022-11-26T12:48:48.846Z,14.10
2022-11-26T12:50:00.361Z,11.50
2022-11-26T12:51:23.313Z,12.20
2022-11-26T12:52:53.637Z,16.20
2022-11-26T12:54:02.040Z,13.90
2022-11-26T12:55:33.311Z,16.90
2022-11-26T12:56:44.990Z,18.60
2022-11-26T12:57:56.660Z,17.80
2022-11-26T12:59:05.352Z,19.30
2022-11-26T13:00:11.387Z,15.70
2022-11-26T13:01:13.724Z,17.70
2022-11-26T13:02:31.622Z,15.60
2022-11-26T13:03:33.783Z,20.70
2022-11-26T13:04:37.904Z,22.22
2022-11-26T13:05:52.672Z,18.40
2022-11-26T13:07:22.930Z,17.80
2022-11-26T13:08:51.448Z,16.10
2022-11-26T13:10:00.222Z,13.90
2022-11-26T13:11:22.549Z,18.80
2022-11-26T13:12:37.321Z,10.30
2022-11-26T13:13:48.790Z,9.90
2022-11-26T13:15:11.432Z,15.70
2022-11-26T13:16:23.374Z,13.40
2022-11-26T13:17:37.577Z,13.90
2022-11-26T13:18:43.477Z,15.40
2022-11-26T13:20:18.361Z,25.10
2022-11-26T13:21:23.935Z,17.40
2022-11-26T13:22:35.452Z,23.50
2022-11-26T13:24:02.521Z,23.60
2022-11-26T13:25:08.100Z,19.00
2022-11-26T13:26:16.629Z,16.00
2022-11-26T13:27:22.129Z,15.70
2022-11-26T13:28:47.596Z,20.90
2022-11-26T13:30:23.428Z,17.70
2022-11-26T13:31:35.156Z,16.10
2022-11-26T13:32:57.354Z,16.30
2022-11-26T13:34:12.206Z,15.20
2022-11-26T13:35:40.184Z,8.70
2022-11-26T13:37:04.072Z,12.80
2022-11-26T13:38:28.115Z,13.50
2022-11-26T13:39:51.911Z,18.60
2022-11-26T13:41:03.734Z,13.50
2022-11-26T13:43:49.996Z,10.70
2022-11-26T13:44:58.237Z,17.90
2022-11-26T13:46:21.555Z,15.00
2022-11-26T13:47:33.113Z,13.30
2022-11-26T13:48:42.784Z,13.30
2022-11-26T13:49:48.269Z,15.30
2022-11-26T13:50:59.997Z,12.60
2022-11-26T13:52:12.310Z,13.80
2022-11-26T13:53:26.471Z,16.10
2022-11-26T13:54:44.973Z,14.50
2022-11-26T13:56:02.726Z,16.00
2022-11-26T13:57:14.644Z,17.90
2022-11-26T13:58:23.906Z,13.30
2022-11-26T13:59:28.773Z,17.40
2022-11-26T14:00:35.164Z,21.60
2022-11-26T14:01:39.602Z,16.80
2022-11-26T14:02:42.945Z,18.80
2022-11-26T14:03:48.311Z,14.00
2022-11-26T14:04:52.535Z,12.80
2022-11-26T14:06:07.681Z,14.00
2022-11-26T14:07:09.992Z,14.40
2022-11-26T14:08:35.425Z,8.10
2022-11-26T14:09:46.857Z,11.90
2022-11-26T14:10:49.081Z,14.10
2022-11-26T14:11:52.605Z,12.33
2022-11-26T14:13:07.164Z,12.40
2022-11-26T14:14:27.793Z,14.10
2022-11-26T14:15:46.785Z,15.60
2022-11-26T14:17:05.285Z,9.20
2022-11-26T14:18:15.956Z,7.10
2022-11-26T14:19:18.061Z,11.90
2022-11-26T14:20:20.379Z,9.90
2022-11-26T14:21:23.162Z,12.22
2022-11-26T14:22:45.326Z,10.82
2022-11-26T14:23:56.580Z,15.40
2022-11-26T14:26:24.576Z,9.80
2022-11-26T14:27:33.024Z,5.90
2022-11-26T14:28:34.850Z,11.10
2022-11-26T14:29:37.524Z,10.33
2022-11-26T14:30:39.430Z,9.20
2022-11-26T14:31:44.859Z,9.11
2022-11-26T14:33:09.103Z,13.80
2022-11-26T14:34:20.814Z,17.50
2022-11-26T14:35:36.498Z,10.60
2022-11-26T14:37:55.353Z,12.60
2022-11-26T14:39:06.426Z,11.50
2022-11-26T14:40:24.447Z,11.60
2022-11-26T14:41:27.375Z,13.10
2022-11-26T14:42:29.623Z,11.82
2022-11-26T14:43:31.686Z,12.20
2022-11-26T14:44:34.688Z,12.78
2022-11-26T14:45:37.276Z,12.64
2022-11-26T14:46:41.252Z,11.50
2022-11-26T14:47:48.499Z,10.90
2022-11-26T14:48:52.058Z,10.00
2022-11-26T14:50:07.939Z,10.30
2022-11-26T14:51:10.579Z,12.90
2022-11-26T14:52:39.647Z,9.36
2022-11-26T14:53:45.222Z,8.30
2022-11-26T19:54:39.944Z,21.10
2022-11-26T19:55:42.503Z,17.90
2022-11-26T19:56:44.930Z,17.30
2022-11-26T19:57:46.887Z,13.30
2022-11-26T19:58:50.067Z,19.44
2022-11-26T19:59:52.678Z,13.20
2022-11-26T20:00:55.003Z,14.70
2022-11-26T20:01:57.161Z,18.10
2022-11-26T20:02:59.602Z,17.10
2022-11-26T20:04:05.524Z,11.70
2022-11-26T20:05:10.779Z,9.10
2022-11-26T20:06:19.788Z,17.10
2022-11-26T20:07:22.399Z,17.90
2022-11-26T20:08:24.561Z,9.10
2022-11-26T20:09:27.777Z,11.50
2022-11-26T20:10:29.731Z,14.40
2022-11-26T20:11:33.845Z,9.67
2022-11-26T20:12:36.982Z,15.60
2022-11-26T20:13:41.481Z,7.50
2022-11-26T20:14:43.458Z,13.00
2022-11-26T20:15:45.337Z,13.30
2022-11-26T20:16:47.345Z,9.33
2022-11-26T20:17:49.354Z,12.00
2022-11-26T20:18:51.523Z,12.30
2022-11-26T20:19:55.644Z,13.80
2022-11-26T20:21:00.661Z,11.30
2022-11-26T20:22:03.096Z,14.50
2022-11-26T20:23:05.793Z,11.90
2022-11-26T20:24:14.541Z,10.60
2022-11-26T20:25:17.071Z,12.10
2022-11-26T20:26:22.661Z,15.20
2022-11-26T20:27:24.661Z,13.30
2022-11-26T20:28:26.732Z,9.00
2022-11-26T20:29:28.773Z,5.33
2022-11-26T20:30:32.061Z,15.00
2022-11-26T20:31:36.229Z,9.30
2022-11-26T20:32:40.148Z,14.10
2022-11-26T20:33:42.058Z,11.00
2022-11-26T20:34:44.822Z,12.44
2022-11-26T20:35:47.789Z,13.45
2022-11-26T20:36:51.029Z,14.64
2022-11-26T20:37:52.913Z,16.60
2022-11-26T20:38:56.593Z,14.44
2022-11-26T20:39:58.514Z,13.90
2022-11-26T20:41:00.458Z,15.00
2022-11-26T20:42:02.644Z,12.89
2022-11-26T20:43:04.462Z,16.10
2022-11-26T20:44:06.291Z,15.89
2022-11-26T20:45:09.884Z,10.89
2022-11-26T20:46:14.633Z,11.30
2022-11-26T20:47:16.593Z,14.30
2022-11-26T20:48:18.400Z,14.30
2022-11-26T20:49:21.032Z,13.78
2022-11-26T20:50:24.037Z,15.20
2022-11-26T20:51:26.909Z,14.90
2022-11-26T20:52:29.015Z,15.00
2022-11-26T20:53:32.591Z,16.20
2022-11-26T20:54:34.674Z,20.60
2022-11-26T20:55:36.836Z,12.44
2022-11-26T20:56:38.755Z,21.00
2022-11-26T20:57:41.599Z,17.78
2022-11-26T20:58:43.721Z,15.80
2022-11-26T20:59:46.432Z,16.00
2022-11-26T21:00:48.413Z,10.91
2022-11-26T21:01:53.419Z,13.80
2022-11-26T21:02:55.868Z,20.00
2022-11-26T21:03:58.485Z,12.80
2022-11-26T21:05:00.797Z,15.60
2022-11-26T21:06:04.278Z,12.00
2022-11-26T21:07:06.255Z,11.00
2022-11-26T21:08:09.010Z,14.11
2022-11-26T21:09:12.653Z,12.00
2022-11-26T21:10:14.721Z,10.80
2022-11-26T21:11:18.194Z,12.78
2022-11-26T21:12:20.153Z,13.50
2022-11-26T21:13:22.393Z,9.44
2022-11-26T21:14:24.344Z,11.10
2022-11-26T21:15:27.396Z,5.60
2022-11-26T21:16:30.396Z,8.00
2022-11-26T21:17:32.493Z,10.20
2022-11-26T21:18:35.485Z,8.70
2022-11-26T21:19:38.168Z,14.55
2022-11-26T21:20:42.327Z,10.00
2022-11-26T21:21:44.309Z,14.60
2022-11-26T21:22:47.295Z,10.80
2022-11-26T21:23:51.113Z,12.55
2022-11-26T21:24:53.084Z,10.90
2022-11-26T21:25:54.728Z,12.56
2022-11-26T21:26:56.940Z,15.67
2022-11-26T21:27:59.737Z,13.40
2022-11-26T21:29:01.866Z,15.82
2022-11-26T21:30:05.014Z,7.60
2022-11-26T21:31:09.751Z,8.00
2022-11-26T21:32:11.678Z,13.30
2022-11-26T21:33:14.188Z,6.56
2022-11-26T21:34:16.463Z,9.90
2022-11-26T21:35:18.745Z,14.10
2022-11-26T21:36:22.730Z,13.70
2022-11-26T21:37:26.783Z,8.20
2022-11-26T21:38:29.143Z,12.40
2022-11-26T21:39:31.084Z,11.30
2022-11-26T21:40:33.361Z,7.56
2022-11-26T21:41:35.650Z,9.50
2022-11-26T21:42:37.973Z,11.60
2022-11-26T21:43:40.986Z,11.10
2022-11-26T21:44:43.386Z,7.80
2022-11-26T21:45:45.736Z,3.56
2022-11-26T21:46:48.307Z,10.90
2022-11-26T21:47:51.697Z,11.70
2022-11-26T21:48:55.353Z,11.00
2022-11-26T21:49:57.621Z,11.80
2022-11-26T21:51:01.782Z,12.60
2022-11-26T21:52:03.923Z,7.30
2022-11-26T21:53:06.306Z,9.80
2022-11-26T21:54:08.580Z,11.70
2022-11-26T21:55:11.023Z,11.00
2022-11-26T21:56:17.227Z,10.30
2022-11-26T21:57:19.248Z,14.60
2022-11-26T21:58:20.991Z,14.00
2022-11-26T21:59:22.920Z,11.00
2022-11-26T22:00:24.683Z,6.89
2022-11-26T22:01:32.921Z,10.56
2022-11-26T22:02:36.221Z,11.70
2022-11-26T22:03:40.406Z,13.50
2022-11-26T22:04:42.988Z,8.80
2022-11-26T22:05:44.823Z,10.60
2022-11-26T22:06:48.283Z,11.30
2022-11-26T22:07:50.244Z,12.70
2022-11-26T22:08:52.780Z,10.30
2022-11-26T22:09:55.161Z,9.20
2022-11-26T22:10:57.293Z,9.70
2022-11-26T22:11:59.024Z,7.56
2022-11-26T22:13:00.776Z,8.56
2022-11-26T22:14:04.755Z,12.11
2022-11-26T22:15:08.390Z,10.50
2022-11-26T22:16:12.958Z,9.20
2022-11-26T22:17:14.962Z,4.20
